createdAt,value
2019-01-17T00:01:16.385Z,6.64
2019-01-17T00:04:07.163Z,6.52
2019-01-17T00:07:13.562Z,6.52
2019-01-17T00:10:04.512Z,6.57
2019-01-17T00:13:01.645Z,6.55
2019-01-17T00:15:49.693Z,6.54
2019-01-17T00:18:36.683Z,6.52
2019-01-17T00:21:20.888Z,6.47
2019-01-17T00:24:17.864Z,6.56
2019-01-17T00:26:59.371Z,6.65
2019-01-17T00:29:50.180Z,6.64
2019-01-17T00:32:35.084Z,6.45
2019-01-17T00:35:25.906Z,6.45
2019-01-17T00:38:08.775Z,6.44
2019-01-17T00:41:08.922Z,6.35
2019-01-17T00:44:06.210Z,6.36
2019-01-17T00:46:53.195Z,6.56
2019-01-17T00:49:44.257Z,6.60
2019-01-17T00:52:38.349Z,6.59
2019-01-17T00:55:38.641Z,6.73
2019-01-17T00:58:25.538Z,6.61
2019-01-17T01:01:11.590Z,6.65
2019-01-17T01:03:58.248Z,6.67
2019-01-17T01:06:45.153Z,6.72
2019-01-17T01:09:33.143Z,6.67
2019-01-17T01:12:21.190Z,6.73
2019-01-17T01:15:15.453Z,6.68
2019-01-17T01:18:15.098Z,6.76
2019-01-17T01:21:09.337Z,6.69
2019-01-17T01:24:06.235Z,6.79
2019-01-17T01:26:46.844Z,6.83
2019-01-17T01:29:33.585Z,6.66
2019-01-17T01:32:24.688Z,6.79
2019-01-17T01:35:11.347Z,6.86
2019-01-17T01:38:14.736Z,6.86
2019-01-17T01:41:09.984Z,6.80
2019-01-17T01:44:01.152Z,6.90
2019-01-17T01:46:48.300Z,6.82
2019-01-17T01:49:42.762Z,6.88
2019-01-17T01:52:29.834Z,6.81
2019-01-17T01:54:58.895Z,6.91
2019-01-17T01:57:28.026Z,6.79
2019-01-17T01:59:57.093Z,6.88
2019-01-17T02:02:26.309Z,6.83
2019-01-17T02:04:55.347Z,6.72
2019-01-17T02:07:24.418Z,6.88
2019-01-17T02:09:53.476Z,6.87
2019-01-17T02:12:22.556Z,6.84
2019-01-17T02:14:51.639Z,6.79
2019-01-17T02:17:21.011Z,6.77
2019-01-17T02:19:50.080Z,6.77
2019-01-17T02:22:19.336Z,6.72
2019-01-17T02:24:48.406Z,6.73
2019-01-17T02:27:17.453Z,6.68
2019-01-17T02:29:46.529Z,6.68
2019-01-17T02:32:15.559Z,6.62
2019-01-17T02:34:44.653Z,6.68
2019-01-17T02:37:13.701Z,6.70
2019-01-17T02:39:42.804Z,6.69
2019-01-17T02:42:11.850Z,6.67
2019-01-17T02:44:40.933Z,6.54
2019-01-17T02:47:09.980Z,6.69
2019-01-17T02:49:39.100Z,6.68
2019-01-17T02:52:08.136Z,6.66
2019-01-17T02:54:37.220Z,6.72
2019-01-17T02:57:06.377Z,6.73
2019-01-17T02:59:36.575Z,6.73
2019-01-17T03:02:05.717Z,6.67
2019-01-17T03:04:34.769Z,6.73
2019-01-17T03:07:03.859Z,6.63
2019-01-17T03:09:32.919Z,6.69
2019-01-17T03:12:02.042Z,6.78
2019-01-17T03:14:31.118Z,6.70
2019-01-17T03:17:00.227Z,6.69
2019-01-17T03:19:29.271Z,6.60
2019-01-17T03:21:58.368Z,6.66
2019-01-17T03:24:27.398Z,6.68
2019-01-17T03:26:56.481Z,6.61
2019-01-17T03:29:25.508Z,6.76
2019-01-17T03:31:54.616Z,6.70
2019-01-17T03:34:23.660Z,6.72
2019-01-17T03:36:52.804Z,6.67
2019-01-17T03:39:21.847Z,6.60
2019-01-17T03:41:50.933Z,6.71
2019-01-17T03:44:20.035Z,6.66
2019-01-17T03:46:49.145Z,6.63
2019-01-17T03:49:18.176Z,6.64
2019-01-17T03:51:47.282Z,6.65
2019-01-17T03:54:16.306Z,6.73
2019-01-17T03:56:45.426Z,6.83
2019-01-17T03:59:14.492Z,6.83
2019-01-17T04:01:43.593Z,6.82
2019-01-17T04:04:12.625Z,6.75
2019-01-17T04:06:41.676Z,6.63
2019-01-17T04:09:10.705Z,6.60
2019-01-17T04:11:39.790Z,6.60
2019-01-17T04:14:08.834Z,6.52
2019-01-17T04:16:37.919Z,6.64
2019-01-17T04:19:07.039Z,6.69
2019-01-17T04:21:36.071Z,6.60
2019-01-17T04:24:05.161Z,6.70
2019-01-17T04:26:34.209Z,6.61
2019-01-17T04:29:03.313Z,6.72
2019-01-17T04:31:32.407Z,6.66
2019-01-17T04:34:01.507Z,6.71
2019-01-17T04:36:30.627Z,6.73
2019-01-17T04:38:59.737Z,6.66
2019-01-17T04:41:28.802Z,6.78
2019-01-17T04:43:58.124Z,6.76
2019-01-17T04:46:27.382Z,6.70
2019-01-17T04:48:56.704Z,6.77
2019-01-17T04:51:25.805Z,6.88
2019-01-17T04:53:54.895Z,6.88
2019-01-17T04:56:23.989Z,6.85
2019-01-17T04:58:53.056Z,6.78
2019-01-17T05:01:22.287Z,6.85
2019-01-17T05:03:51.703Z,6.74
2019-01-17T05:06:20.717Z,7.01
2019-01-17T05:08:49.834Z,6.88
2019-01-17T05:11:18.901Z,6.89
2019-01-17T05:13:48.044Z,6.93
2019-01-17T05:16:17.302Z,6.87
2019-01-17T05:18:46.355Z,6.92
2019-01-17T05:21:15.552Z,6.90
2019-01-17T05:23:44.626Z,7.00
2019-01-17T05:26:13.706Z,6.86
2019-01-17T05:28:42.767Z,6.95
2019-01-17T05:31:11.840Z,6.93
2019-01-17T05:33:40.933Z,6.95
2019-01-17T05:36:10.034Z,6.92
2019-01-17T05:38:39.086Z,6.92
2019-01-17T05:41:08.175Z,6.92
2019-01-17T05:43:37.237Z,6.94
2019-01-17T05:46:06.428Z,6.92
2019-01-17T05:48:35.492Z,6.89
2019-01-17T05:51:04.591Z,7.02
2019-01-17T05:53:33.709Z,6.90
2019-01-17T05:56:02.802Z,7.01
2019-01-17T05:58:31.871Z,7.01
2019-01-17T06:01:00.935Z,6.91
2019-01-17T06:03:30.055Z,6.92
2019-01-17T06:05:59.173Z,7.01
2019-01-17T06:08:28.272Z,7.03
2019-01-17T06:10:57.387Z,6.97
2019-01-17T06:13:26.592Z,6.98
2019-01-17T06:15:55.839Z,6.94
2019-01-17T06:18:24.944Z,6.88
2019-01-17T06:20:53.986Z,6.92
2019-01-17T06:23:23.109Z,6.93
2019-01-17T06:25:52.182Z,6.91
2019-01-17T06:28:21.351Z,6.93
2019-01-17T06:30:50.461Z,6.95
2019-01-17T06:33:19.540Z,7.02
2019-01-17T06:35:49.623Z,7.01
2019-01-17T06:38:18.709Z,6.85
2019-01-17T06:40:47.768Z,6.87
2019-01-17T06:43:17.034Z,7.03
2019-01-17T06:45:46.132Z,6.90
2019-01-17T06:48:15.278Z,6.96
2019-01-17T06:50:44.349Z,6.84
2019-01-17T06:53:13.521Z,6.89
2019-01-17T06:55:42.600Z,7.01
2019-01-17T06:58:11.695Z,6.88
2019-01-17T07:00:40.776Z,6.76
2019-01-17T07:03:09.865Z,6.85
2019-01-17T07:05:38.964Z,6.83
2019-01-17T07:08:08.052Z,6.86
2019-01-17T07:10:37.223Z,6.89
2019-01-17T07:13:06.295Z,6.74
2019-01-17T07:15:35.513Z,6.70
2019-01-17T07:18:04.568Z,6.68
2019-01-17T07:20:33.726Z,6.66
2019-01-17T07:23:02.918Z,6.70
2019-01-17T07:25:32.032Z,6.65
2019-01-17T07:28:01.188Z,6.59
2019-01-17T07:30:30.303Z,6.47
2019-01-17T07:32:59.402Z,6.62
2019-01-17T07:35:28.525Z,6.64
2019-01-17T07:37:57.607Z,6.68
2019-01-17T07:40:26.737Z,6.67
2019-01-17T07:42:55.813Z,6.81
2019-01-17T07:45:27.414Z,6.79
2019-01-17T07:47:56.477Z,6.69
2019-01-17T07:50:25.523Z,6.47
2019-01-17T07:52:54.645Z,6.21
2019-01-17T07:55:23.994Z,6.22
2019-01-17T07:57:53.133Z,6.16
2019-01-17T08:00:23.529Z,6.14
2019-01-17T08:02:52.643Z,6.14
2019-01-17T08:05:21.713Z,6.19
2019-01-17T08:07:50.811Z,6.26
2019-01-17T08:10:20.280Z,6.26
2019-01-17T08:12:49.429Z,6.55
2019-01-17T08:15:18.525Z,6.60
2019-01-17T08:17:47.670Z,6.70
2019-01-17T08:20:19.262Z,6.83
2019-01-17T08:22:48.361Z,6.77
2019-01-17T08:25:17.593Z,6.77
2019-01-17T08:27:46.706Z,6.90
2019-01-17T08:30:18.053Z,6.89
2019-01-17T08:32:47.113Z,6.88
2019-01-17T08:35:16.375Z,7.00
2019-01-17T08:37:45.602Z,7.07
2019-01-17T08:40:34.571Z,7.24
2019-01-17T08:43:03.747Z,7.26
2019-01-17T08:45:32.853Z,7.14
2019-01-17T08:48:02.042Z,7.12
2019-01-17T08:50:31.144Z,7.39
2019-01-17T08:53:00.234Z,7.47
2019-01-17T08:55:29.350Z,7.59
2019-01-17T08:57:58.456Z,7.61
2019-01-17T09:00:27.699Z,7.57
2019-01-17T09:02:56.761Z,7.53
2019-01-17T09:05:25.881Z,7.65
2019-01-17T09:07:54.960Z,7.56
2019-01-17T09:10:26.499Z,7.45
2019-01-17T09:12:55.640Z,7.36
2019-01-17T09:15:33.514Z,7.53
2019-01-17T09:18:02.641Z,7.55
2019-01-17T09:20:31.836Z,7.56
2019-01-17T09:23:00.919Z,7.64
2019-01-17T09:25:30.037Z,7.63
2019-01-17T09:27:59.112Z,7.74
2019-01-17T09:30:28.283Z,7.71
2019-01-17T09:32:57.375Z,7.63
2019-01-17T09:35:26.453Z,7.60
2019-01-17T09:37:55.713Z,7.53
2019-01-17T09:40:24.796Z,7.55
2019-01-17T09:42:53.909Z,7.45
2019-01-17T09:45:23.106Z,7.49
2019-01-17T09:47:52.198Z,7.25
2019-01-17T09:50:23.329Z,7.08
2019-01-17T09:52:52.391Z,7.06
2019-01-17T09:55:21.451Z,7.02
2019-01-17T09:57:50.561Z,6.95
2019-01-17T10:00:22.292Z,6.78
2019-01-17T10:02:51.402Z,6.39
2019-01-17T10:05:20.469Z,6.35
2019-01-17T10:07:49.599Z,6.30
2019-01-17T10:10:19.102Z,6.14
2019-01-17T10:12:48.234Z,6.16
2019-01-17T10:15:20.938Z,6.22
2019-01-17T10:18:29.639Z,6.22
2019-01-17T10:21:18.458Z,6.11
2019-01-17T10:24:34.415Z,5.94
2019-01-17T10:27:31.818Z,5.81
2019-01-17T10:30:38.687Z,5.93
2019-01-17T10:33:30.978Z,5.80
2019-01-17T10:36:27.600Z,5.97
2019-01-17T10:39:37.675Z,5.90
2019-01-17T10:42:57.487Z,6.02
2019-01-17T10:46:03.325Z,5.75
2019-01-17T10:49:11.026Z,5.80
2019-01-17T10:52:16.455Z,5.80
2019-01-17T10:55:42.022Z,5.66
2019-01-17T10:58:30.618Z,5.91
2019-01-17T11:01:39.674Z,5.76
2019-01-17T11:04:32.806Z,5.68
2019-01-17T11:07:51.495Z,5.69
2019-01-17T11:10:45.645Z,5.74
2019-01-17T11:13:58.212Z,5.59
2019-01-17T11:16:59.003Z,5.65
2019-01-17T11:19:55.647Z,5.81
2019-01-17T11:23:14.830Z,5.83
2019-01-17T11:25:59.185Z,5.89
2019-01-17T11:29:01.402Z,6.03
2019-01-17T11:32:03.551Z,6.08
2019-01-17T11:34:45.664Z,5.98
2019-01-17T11:37:58.855Z,5.88
2019-01-17T11:41:33.374Z,5.68
2019-01-17T11:44:31.349Z,5.69
2019-01-17T11:47:37.166Z,5.62
2019-01-17T11:50:41.040Z,5.51
2019-01-17T11:53:41.032Z,5.90
2019-01-17T11:56:53.972Z,5.86
2019-01-17T12:00:03.581Z,6.29
2019-01-17T12:02:48.277Z,6.37
2019-01-17T12:05:17.375Z,6.08
2019-01-17T12:07:49.241Z,6.03
2019-01-17T12:10:18.330Z,6.40
2019-01-17T12:12:47.868Z,6.19
2019-01-17T12:15:17.040Z,6.32
2019-01-17T12:17:46.379Z,6.23
2019-01-17T12:20:15.454Z,5.99
2019-01-17T12:22:44.638Z,5.98
2019-01-17T12:25:13.691Z,5.99
2019-01-17T12:27:42.899Z,5.74
2019-01-17T12:30:14.246Z,5.90
2019-01-17T12:32:43.384Z,5.78
2019-01-17T12:35:12.685Z,5.91
2019-01-17T12:37:41.762Z,5.69
2019-01-17T12:40:13.555Z,5.99
2019-01-17T12:42:42.695Z,5.65
2019-01-17T12:45:11.925Z,5.92
2019-01-17T12:47:41.013Z,5.91
2019-01-17T12:50:15.355Z,5.81
2019-01-17T12:52:44.566Z,5.68
2019-01-17T12:55:13.620Z,5.85
2019-01-17T12:57:42.712Z,5.80
2019-01-17T13:00:17.612Z,5.93
2019-01-17T13:02:46.807Z,6.04
2019-01-17T13:05:15.949Z,5.75
2019-01-17T13:07:45.053Z,5.79
2019-01-17T13:10:14.246Z,5.73
2019-01-17T13:12:43.278Z,5.65
2019-01-17T13:15:13.374Z,5.72
2019-01-17T13:17:42.422Z,5.38
2019-01-17T13:20:14.284Z,5.54
2019-01-17T13:22:43.407Z,5.48
2019-01-17T13:25:15.240Z,5.67
2019-01-17T13:27:44.354Z,5.35
2019-01-17T13:30:16.374Z,5.55
2019-01-17T13:32:45.465Z,5.29
2019-01-17T13:35:14.700Z,5.20
2019-01-17T13:37:43.819Z,5.54
2019-01-17T13:40:16.042Z,5.79
2019-01-17T13:42:45.114Z,5.71
2019-01-17T13:45:15.510Z,5.60
2019-01-17T13:47:44.582Z,5.53
2019-01-17T13:50:13.771Z,5.63
2019-01-17T13:52:42.875Z,5.55
2019-01-17T13:55:12.439Z,5.60
2019-01-17T13:57:41.535Z,5.39
2019-01-17T14:00:17.355Z,5.47
2019-01-17T14:02:46.478Z,5.33
2019-01-17T14:05:15.690Z,5.34
2019-01-17T14:07:44.831Z,5.35
2019-01-17T14:10:14.353Z,5.11
2019-01-17T14:12:43.477Z,5.05
2019-01-17T14:15:15.860Z,5.17
2019-01-17T14:17:44.996Z,5.57
2019-01-17T14:20:14.236Z,5.48
2019-01-17T14:22:43.389Z,5.37
2019-01-17T14:25:12.451Z,5.38
2019-01-17T14:27:41.556Z,5.47
2019-01-17T14:30:14.753Z,5.38
2019-01-17T14:32:43.866Z,5.56
2019-01-17T14:35:12.952Z,5.57
2019-01-17T14:37:42.067Z,5.57
2019-01-17T14:40:11.350Z,5.48
2019-01-17T14:42:40.467Z,5.20
2019-01-17T14:45:13.741Z,4.43
2019-01-17T14:47:42.832Z,4.07
2019-01-17T14:50:15.392Z,4.27
2019-01-17T14:52:44.516Z,4.09
2019-01-17T14:55:13.684Z,4.26
2019-01-17T14:57:42.759Z,4.27
2019-01-17T15:00:17.293Z,4.21
2019-01-17T15:02:46.393Z,4.01
2019-01-17T15:05:15.692Z,4.29
2019-01-17T15:07:44.780Z,4.03
2019-01-17T15:10:16.815Z,4.19
2019-01-17T15:12:45.915Z,4.32
2019-01-17T15:15:15.084Z,4.37
2019-01-17T15:17:44.292Z,4.43
2019-01-17T15:20:15.930Z,4.44
2019-01-17T15:22:46.143Z,4.31
2019-01-17T15:25:16.113Z,4.35
2019-01-17T15:27:45.179Z,4.35
2019-01-17T15:30:24.835Z,4.42
2019-01-17T15:32:54.017Z,4.41
2019-01-17T15:35:23.103Z,4.33
2019-01-17T15:37:52.307Z,4.22
2019-01-17T15:40:23.947Z,4.17
2019-01-17T15:42:53.318Z,4.12
2019-01-17T15:45:22.457Z,4.08
2019-01-17T15:47:51.816Z,3.95
2019-01-17T15:50:21.028Z,4.03
2019-01-17T15:52:50.214Z,3.91
2019-01-17T15:55:19.354Z,3.84
2019-01-17T15:57:48.412Z,3.94
2019-01-17T16:00:22.835Z,3.84
2019-01-17T16:02:52.062Z,3.74
2019-01-17T16:05:21.271Z,3.82
2019-01-17T16:52:12.057Z,3.71
2019-01-17T16:54:41.240Z,3.89
2019-01-17T16:57:10.384Z,3.87
2019-01-17T16:59:42.079Z,4.03
2019-01-17T17:02:11.427Z,4.10
2019-01-17T17:04:40.653Z,4.13
2019-01-17T17:07:09.930Z,4.14
2019-01-17T17:09:39.358Z,4.09
2019-01-17T17:12:08.707Z,4.14
2019-01-17T17:14:37.918Z,4.19
2019-01-17T17:17:07.222Z,4.21
2019-01-17T17:19:36.900Z,4.25
2019-01-17T17:22:06.134Z,4.18
2019-01-17T17:24:35.489Z,4.35
2019-01-17T17:27:04.775Z,4.31
2019-01-17T17:29:35.455Z,4.32
2019-01-17T17:32:07.409Z,4.39
2019-01-17T17:34:41.494Z,4.28
2019-01-17T17:38:07.413Z,4.35
2019-01-17T17:39:54.879Z,4.24
2019-01-17T17:42:37.242Z,4.08
2019-01-17T17:45:40.059Z,4.16
2019-01-17T17:48:27.221Z,4.17
2019-01-17T17:51:34.136Z,4.13
2019-01-17T17:54:10.732Z,4.24
2019-01-17T17:57:04.582Z,4.23
2019-01-17T17:59:51.021Z,4.09
2019-01-17T18:02:27.750Z,4.32
2019-01-17T18:05:02.496Z,4.26
2019-01-17T18:07:35.958Z,4.36
2019-01-17T18:10:06.227Z,4.33
2019-01-17T18:12:42.636Z,4.40
2019-01-17T18:15:13.002Z,4.50
2019-01-17T18:17:43.682Z,4.37
2019-01-17T18:20:13.294Z,4.38
2019-01-17T18:22:42.449Z,4.36
2019-01-17T18:25:13.664Z,4.37
2019-01-17T18:27:42.934Z,4.39
2019-01-17T18:30:18.885Z,4.41
2019-01-17T18:32:48.103Z,4.50
2019-01-17T18:35:17.234Z,4.27
2019-01-17T18:37:46.405Z,4.40
2019-01-17T18:40:16.353Z,4.36
2019-01-17T18:42:45.686Z,4.40
2019-01-17T18:45:17.231Z,4.34
2019-01-17T18:47:46.456Z,4.07
2019-01-17T18:50:21.337Z,4.18
2019-01-17T18:52:50.530Z,4.10
2019-01-17T18:55:19.683Z,3.86
2019-01-17T18:57:48.861Z,3.65
2019-01-17T19:00:21.498Z,3.46
2019-01-17T19:02:50.726Z,3.46
2019-01-17T19:05:20.257Z,3.41
2019-01-17T19:07:52.768Z,3.40
2019-01-17T19:10:22.004Z,3.24
2019-01-17T19:12:51.290Z,3.22
2019-01-17T19:15:25.639Z,3.31
2019-01-17T19:17:54.940Z,3.33
2019-01-17T19:20:24.157Z,3.14
2019-01-17T19:22:53.310Z,3.05
2019-01-17T19:25:22.498Z,2.94
2019-01-17T19:27:51.770Z,2.93
2019-01-17T19:30:25.639Z,2.85
2019-01-17T19:32:54.750Z,2.82
2019-01-17T19:35:24.054Z,2.74
2019-01-17T19:37:53.231Z,2.77
2019-01-17T19:40:25.474Z,2.84
2019-01-17T19:42:54.733Z,2.83
2019-01-17T19:45:23.999Z,2.79
2019-01-17T19:47:53.134Z,3.05
2019-01-17T19:50:27.773Z,3.03
2019-01-17T19:52:56.967Z,3.11
2019-01-17T19:55:26.108Z,3.20
2019-01-17T19:57:55.633Z,3.34
2019-01-17T20:00:24.992Z,3.34
2019-01-17T20:02:54.154Z,3.42
2019-01-17T20:05:23.974Z,3.24
2019-01-17T20:07:53.106Z,3.26
2019-01-17T20:10:24.819Z,3.05
2019-01-17T20:12:53.980Z,2.84
2019-01-17T20:15:23.096Z,2.76
2019-01-17T20:17:52.369Z,2.71
2019-01-17T20:20:21.557Z,2.67
2019-01-17T20:22:50.761Z,2.71
2019-01-17T20:25:19.871Z,2.69
2019-01-17T20:27:49.132Z,2.86
2019-01-17T20:30:20.365Z,2.82
2019-01-17T20:32:49.703Z,2.75
2019-01-17T20:35:18.917Z,2.72
2019-01-17T20:37:48.177Z,2.72
2019-01-17T20:40:21.883Z,2.54
2019-01-17T20:42:51.096Z,2.55
2019-01-17T20:45:20.282Z,2.46
2019-01-17T20:47:49.552Z,2.42
2019-01-17T20:50:24.043Z,2.34
2019-01-17T20:52:53.395Z,2.36
2019-01-17T20:55:22.634Z,2.27
2019-01-17T20:57:51.976Z,2.25
2019-01-17T21:00:56.458Z,2.22
2019-01-17T21:03:25.665Z,2.20
2019-01-17T21:05:54.845Z,2.24
2019-01-17T21:08:24.043Z,2.26
2019-01-17T21:10:53.199Z,2.22
2019-01-17T21:13:22.410Z,2.34
2019-01-17T21:15:51.608Z,2.25
2019-01-17T21:18:20.707Z,2.20
2019-01-17T21:20:49.929Z,2.20
2019-01-17T21:23:19.047Z,2.24
2019-01-17T21:25:48.191Z,2.24
2019-01-17T21:28:17.358Z,2.14
2019-01-17T21:30:46.531Z,2.12
2019-01-17T21:33:15.612Z,2.19
2019-01-17T21:35:45.207Z,2.18
2019-01-17T21:38:14.370Z,2.17
2019-01-17T21:40:43.571Z,2.20
2019-01-17T21:43:12.715Z,2.13
2019-01-17T21:45:41.885Z,2.08
2019-01-17T21:48:11.040Z,2.07
2019-01-17T21:50:40.263Z,2.13
2019-01-17T21:53:09.580Z,2.13
2019-01-17T21:55:39.033Z,2.08
2019-01-17T21:58:16.876Z,2.13
2019-01-17T22:00:46.120Z,2.07
2019-01-17T22:03:15.262Z,2.10
2019-01-17T22:05:44.416Z,2.17
2019-01-17T22:08:16.142Z,2.14
2019-01-17T22:10:45.449Z,2.07
2019-01-17T22:13:14.601Z,2.00
2019-01-17T22:15:54.852Z,2.08
2019-01-17T22:18:24.077Z,1.99
2019-01-17T22:20:53.355Z,2.07
2019-01-17T22:23:22.533Z,2.09
2019-01-17T22:25:51.676Z,2.01
2019-01-17T22:28:20.767Z,2.00
2019-01-17T22:30:49.983Z,2.00
2019-01-17T22:33:19.099Z,1.92
2019-01-17T22:35:48.224Z,1.88
2019-01-17T22:38:17.310Z,1.92
2019-01-17T22:40:46.895Z,1.91
2019-01-17T22:43:15.968Z,1.92
2019-01-17T22:45:45.120Z,1.79
2019-01-17T22:48:14.258Z,1.81
2019-01-17T22:50:43.364Z,1.89
2019-01-17T22:53:12.462Z,1.79
2019-01-17T22:55:41.594Z,1.77
2019-01-17T22:58:10.779Z,1.80
2019-01-17T23:01:01.765Z,1.88
2019-01-17T23:03:40.122Z,1.90
2019-01-17T23:06:09.231Z,1.95
2019-01-17T23:08:38.371Z,1.89
2019-01-17T23:11:07.484Z,1.81
2019-01-17T23:13:36.578Z,1.86
2019-01-17T23:16:06.347Z,1.83
2019-01-17T23:18:35.437Z,1.82
2019-01-17T23:21:04.540Z,1.72
2019-01-17T23:23:33.648Z,1.80
2019-01-17T23:26:02.701Z,1.69
2019-01-17T23:28:31.836Z,1.65
2019-01-17T23:31:00.917Z,1.84
2019-01-17T23:33:30.009Z,1.85
2019-01-17T23:35:59.082Z,2.00
2019-01-17T23:38:28.386Z,1.97
2019-01-17T23:40:57.519Z,2.04
2019-01-17T23:43:26.746Z,2.03
2019-01-17T23:45:55.811Z,2.04
2019-01-17T23:48:24.875Z,2.03
2019-01-17T23:50:53.990Z,2.19
2019-01-17T23:53:23.023Z,2.21
2019-01-17T23:55:52.145Z,2.14
2019-01-17T23:58:21.183Z,2.19
